sensor_id;sensor_type;location;lat;lon;timestamp;P1;durP1;ratioP1;P2;durP2;ratioP2
36839;SDS011;24406;51.640;9.566;2023-08-30T00:00:39;6.82;;;3.90;;
36839;SDS011;24406;51.640;9.566;2023-08-30T00:05:40;4.13;;;3.47;;
36839;SDS011;24406;51.640;9.566;2023-08-30T00:10:42;12.57;;;3.63;;
36839;SDS011;24406;51.640;9.566;2023-08-30T00:15:45;3.50;;;3.30;;
36839;SDS011;24406;51.640;9.566;2023-08-30T00:20:47;3.58;;;3.25;;
36839;SDS011;24406;51.640;9.566;2023-08-30T00:25:48;3.08;;;2.88;;
36839;SDS011;24406;51.640;9.566;2023-08-30T00:30:53;3.95;;;3.08;;
36839;SDS011;24406;51.640;9.566;2023-08-30T00:35:56;4.38;;;2.63;;
36839;SDS011;24406;51.640;9.566;2023-08-30T00:40:58;4.35;;;3.05;;
36839;SDS011;24406;51.640;9.566;2023-08-30T00:46:01;3.63;;;3.08;;
36839;SDS011;24406;51.640;9.566;2023-08-30T00:51:02;3.47;;;2.92;;
36839;SDS011;24406;51.640;9.566;2023-08-30T00:56:04;2.80;;;2.53;;
36839;SDS011;24406;51.640;9.566;2023-08-30T01:01:07;2.65;;;2.45;;
36839;SDS011;24406;51.640;9.566;2023-08-30T01:06:10;4.45;;;2.60;;
36839;SDS011;24406;51.640;9.566;2023-08-30T01:11:12;2.67;;;2.45;;
36839;SDS011;24406;51.640;9.566;2023-08-30T01:16:18;3.08;;;2.70;;
36839;SDS011;24406;51.640;9.566;2023-08-30T01:21:23;2.67;;;2.47;;
36839;SDS011;24406;51.640;9.566;2023-08-30T01:26:35;4.43;;;4.05;;
36839;SDS011;24406;51.640;9.566;2023-08-30T01:36:42;9.27;;;5.13;;
36839;SDS011;24406;51.640;9.566;2023-08-30T01:41:44;10.15;;;8.65;;
36839;SDS011;24406;51.640;9.566;2023-08-30T01:46:48;9.50;;;7.85;;
36839;SDS011;24406;51.640;9.566;2023-08-30T01:51:50;7.93;;;6.13;;
36839;SDS011;24406;51.640;9.566;2023-08-30T01:56:52;6.82;;;5.68;;
36839;SDS011;24406;51.640;9.566;2023-08-30T02:01:55;22.30;;;7.82;;
36839;SDS011;24406;51.640;9.566;2023-08-30T02:06:59;8.52;;;6.63;;
36839;SDS011;24406;51.640;9.566;2023-08-30T02:12:04;7.20;;;6.50;;
36839;SDS011;24406;51.640;9.566;2023-08-30T02:17:10;7.75;;;7.03;;
36839;SDS011;24406;51.640;9.566;2023-08-30T02:22:13;11.65;;;8.18;;
36839;SDS011;24406;51.640;9.566;2023-08-30T02:27:15;75.47;;;7.13;;
36839;SDS011;24406;51.640;9.566;2023-08-30T02:32:18;90.72;;;8.93;;
36839;SDS011;24406;51.640;9.566;2023-08-30T02:37:22;258.92;;;14.07;;
36839;SDS011;24406;51.640;9.566;2023-08-30T02:42:24;238.68;;;15.30;;
36839;SDS011;24406;51.640;9.566;2023-08-30T02:47:29;56.25;;;13.20;;
36839;SDS011;24406;51.640;9.566;2023-08-30T02:52:30;13.48;;;10.55;;
36839;SDS011;24406;51.640;9.566;2023-08-30T02:57:32;21.50;;;10.13;;
36839;SDS011;24406;51.640;9.566;2023-08-30T03:02:35;29.90;;;10.50;;
36839;SDS011;24406;51.640;9.566;2023-08-30T03:07:37;21.67;;;9.10;;
36839;SDS011;24406;51.640;9.566;2023-08-30T03:12:40;16.45;;;9.27;;
36839;SDS011;24406;51.640;9.566;2023-08-30T03:17:43;32.67;;;9.63;;
36839;SDS011;24406;51.640;9.566;2023-08-30T03:22:45;10.35;;;9.20;;
36839;SDS011;24406;51.640;9.566;2023-08-30T03:27:47;83.57;;;11.38;;
36839;SDS011;24406;51.640;9.566;2023-08-30T03:32:50;19.80;;;9.95;;
36839;SDS011;24406;51.640;9.566;2023-08-30T03:37:52;22.42;;;10.65;;
36839;SDS011;24406;51.640;9.566;2023-08-30T03:42:54;33.88;;;11.15;;
36839;SDS011;24406;51.640;9.566;2023-08-30T03:47:57;29.27;;;10.20;;
36839;SDS011;24406;51.640;9.566;2023-08-30T03:53:00;16.83;;;11.40;;
36839;SDS011;24406;51.640;9.566;2023-08-30T03:58:02;25.98;;;10.93;;
36839;SDS011;24406;51.640;9.566;2023-08-30T04:03:07;68.78;;;12.38;;
36839;SDS011;24406;51.640;9.566;2023-08-30T04:08:10;26.15;;;12.13;;
36839;SDS011;24406;51.640;9.566;2023-08-30T04:13:11;17.30;;;13.13;;
36839;SDS011;24406;51.640;9.566;2023-08-30T04:18:14;31.90;;;13.77;;
36839;SDS011;24406;51.640;9.566;2023-08-30T04:23:16;47.85;;;12.35;;
36839;SDS011;24406;51.640;9.566;2023-08-30T04:28:18;57.72;;;14.00;;
36839;SDS011;24406;51.640;9.566;2023-08-30T04:33:21;48.20;;;15.00;;
36839;SDS011;24406;51.640;9.566;2023-08-30T05:26:03;28.27;;;14.05;;
36839;SDS011;24406;51.640;9.566;2023-08-30T05:31:05;18.40;;;13.73;;
36839;SDS011;24406;51.640;9.566;2023-08-30T05:36:35;22.80;;;14.55;;
36839;SDS011;24406;51.640;9.566;2023-08-30T05:41:53;16.73;;;14.50;;
36839;SDS011;24406;51.640;9.566;2023-08-30T05:46:55;21.83;;;14.57;;
36839;SDS011;24406;51.640;9.566;2023-08-30T05:51:57;14.35;;;12.20;;
36839;SDS011;24406;51.640;9.566;2023-08-30T05:57:00;16.65;;;12.93;;
36839;SDS011;24406;51.640;9.566;2023-08-30T06:02:02;23.35;;;14.18;;
36839;SDS011;24406;51.640;9.566;2023-08-30T06:07:04;22.95;;;15.07;;
36839;SDS011;24406;51.640;9.566;2023-08-30T06:12:08;21.02;;;15.45;;
36839;SDS011;24406;51.640;9.566;2023-08-30T06:17:10;18.50;;;14.23;;
36839;SDS011;24406;51.640;9.566;2023-08-30T06:22:11;17.17;;;14.60;;
36839;SDS011;24406;51.640;9.566;2023-08-30T06:27:14;25.20;;;17.23;;
36839;SDS011;24406;51.640;9.566;2023-08-30T06:32:16;17.85;;;14.15;;
36839;SDS011;24406;51.640;9.566;2023-08-30T06:37:18;20.80;;;16.45;;
36839;SDS011;24406;51.640;9.566;2023-08-30T06:42:20;12.38;;;11.18;;
36839;SDS011;24406;51.640;9.566;2023-08-30T06:47:23;13.93;;;12.48;;
36839;SDS011;24406;51.640;9.566;2023-08-30T06:52:25;10.88;;;9.75;;
36839;SDS011;24406;51.640;9.566;2023-08-30T06:57:27;10.68;;;9.38;;
36839;SDS011;24406;51.640;9.566;2023-08-30T07:02:29;9.70;;;8.90;;
36839;SDS011;24406;51.640;9.566;2023-08-30T07:07:31;8.93;;;8.13;;
36839;SDS011;24406;51.640;9.566;2023-08-30T07:12:37;8.68;;;7.88;;
36839;SDS011;24406;51.640;9.566;2023-08-30T07:17:41;9.43;;;8.63;;
36839;SDS011;24406;51.640;9.566;2023-08-30T07:22:43;10.57;;;9.57;;
36839;SDS011;24406;51.640;9.566;2023-08-30T07:27:46;9.88;;;8.93;;
36839;SDS011;24406;51.640;9.566;2023-08-30T07:32:47;9.57;;;8.57;;
36839;SDS011;24406;51.640;9.566;2023-08-30T07:37:49;8.82;;;8.13;;
36839;SDS011;24406;51.640;9.566;2023-08-30T07:42:52;8.18;;;7.47;;
36839;SDS011;24406;51.640;9.566;2023-08-30T07:47:59;8.25;;;7.65;;
36839;SDS011;24406;51.640;9.566;2023-08-30T07:53:00;7.60;;;7.00;;
36839;SDS011;24406;51.640;9.566;2023-08-30T07:58:03;8.45;;;7.75;;
36839;SDS011;24406;51.640;9.566;2023-08-30T08:03:05;7.97;;;7.18;;
36839;SDS011;24406;51.640;9.566;2023-08-30T08:08:06;8.13;;;7.32;;
36839;SDS011;24406;51.640;9.566;2023-08-30T08:13:09;6.80;;;6.20;;
36839;SDS011;24406;51.640;9.566;2023-08-30T08:18:12;8.32;;;7.57;;
36839;SDS011;24406;51.640;9.566;2023-08-30T08:23:14;7.35;;;6.63;;
36839;SDS011;24406;51.640;9.566;2023-08-30T08:28:17;7.68;;;6.95;;
36839;SDS011;24406;51.640;9.566;2023-08-30T08:33:19;9.85;;;7.72;;
36839;SDS011;24406;51.640;9.566;2023-08-30T08:38:23;9.80;;;6.68;;
36839;SDS011;24406;51.640;9.566;2023-08-30T08:43:26;7.35;;;6.68;;
36839;SDS011;24406;51.640;9.566;2023-08-30T08:48:28;8.00;;;7.20;;
36839;SDS011;24406;51.640;9.566;2023-08-30T08:53:30;8.15;;;7.32;;
36839;SDS011;24406;51.640;9.566;2023-08-30T08:58:34;7.40;;;6.80;;
36839;SDS011;24406;51.640;9.566;2023-08-30T09:03:36;8.00;;;7.38;;
36839;SDS011;24406;51.640;9.566;2023-08-30T09:08:38;7.85;;;7.15;;
36839;SDS011;24406;51.640;9.566;2023-08-30T09:13:40;6.35;;;5.85;;
36839;SDS011;24406;51.640;9.566;2023-08-30T09:18:43;7.05;;;6.40;;
36839;SDS011;24406;51.640;9.566;2023-08-30T09:23:45;6.82;;;6.22;;
36839;SDS011;24406;51.640;9.566;2023-08-30T09:28:48;7.05;;;6.38;;
36839;SDS011;24406;51.640;9.566;2023-08-30T09:33:49;7.82;;;7.03;;
36839;SDS011;24406;51.640;9.566;2023-08-30T09:38:53;6.63;;;6.13;;
36839;SDS011;24406;51.640;9.566;2023-08-30T09:43:59;6.97;;;6.28;;
36839;SDS011;24406;51.640;9.566;2023-08-30T09:49:01;9.50;;;7.03;;
36839;SDS011;24406;51.640;9.566;2023-08-30T09:54:04;8.27;;;7.57;;
36839;SDS011;24406;51.640;9.566;2023-08-30T09:59:07;10.65;;;7.50;;
36839;SDS011;24406;51.640;9.566;2023-08-30T10:04:11;11.68;;;10.63;;
36839;SDS011;24406;51.640;9.566;2023-08-30T10:09:12;12.77;;;9.65;;
36839;SDS011;24406;51.640;9.566;2023-08-30T10:14:18;9.00;;;8.20;;
36839;SDS011;24406;51.640;9.566;2023-08-30T10:19:21;8.85;;;8.02;;
36839;SDS011;24406;51.640;9.566;2023-08-30T10:24:25;8.60;;;7.68;;
36839;SDS011;24406;51.640;9.566;2023-08-30T10:29:28;10.05;;;9.05;;
36839;SDS011;24406;51.640;9.566;2023-08-30T10:34:33;12.52;;;11.23;;
36839;SDS011;24406;51.640;9.566;2023-08-30T10:39:36;12.63;;;11.32;;
36839;SDS011;24406;51.640;9.566;2023-08-30T10:44:49;12.60;;;11.48;;
36839;SDS011;24406;51.640;9.566;2023-08-30T10:49:53;14.85;;;13.35;;
36839;SDS011;24406;51.640;9.566;2023-08-30T10:55:04;14.73;;;13.23;;
36839;SDS011;24406;51.640;9.566;2023-08-30T11:00:08;15.18;;;13.50;;
36839;SDS011;24406;51.640;9.566;2023-08-30T11:05:10;14.55;;;13.00;;
36839;SDS011;24406;51.640;9.566;2023-08-30T11:10:12;15.00;;;13.20;;
36839;SDS011;24406;51.640;9.566;2023-08-30T11:15:15;15.25;;;13.75;;
36839;SDS011;24406;51.640;9.566;2023-08-30T11:20:17;17.65;;;15.32;;
36839;SDS011;24406;51.640;9.566;2023-08-30T11:25:20;15.57;;;14.07;;
36839;SDS011;24406;51.640;9.566;2023-08-30T11:30:23;11.23;;;10.13;;
36839;SDS011;24406;51.640;9.566;2023-08-30T11:35:26;10.93;;;9.82;;
36839;SDS011;24406;51.640;9.566;2023-08-30T11:40:27;9.07;;;8.27;;
36839;SDS011;24406;51.640;9.566;2023-08-30T11:45:32;10.52;;;7.22;;
36839;SDS011;24406;51.640;9.566;2023-08-30T11:50:34;6.40;;;5.80;;
36839;SDS011;24406;51.640;9.566;2023-08-30T11:55:36;7.80;;;5.68;;
36839;SDS011;24406;51.640;9.566;2023-08-30T12:00:40;8.02;;;6.28;;
36839;SDS011;24406;51.640;9.566;2023-08-30T12:05:45;7.60;;;6.93;;
36839;SDS011;24406;51.640;9.566;2023-08-30T12:10:47;9.25;;;6.90;;
36839;SDS011;24406;51.640;9.566;2023-08-30T12:15:50;6.45;;;5.85;;
36839;SDS011;24406;51.640;9.566;2023-08-30T12:20:52;6.95;;;6.35;;
36839;SDS011;24406;51.640;9.566;2023-08-30T12:26:18;6.68;;;5.65;;
36839;SDS011;24406;51.640;9.566;2023-08-30T12:32:07;5.65;;;5.15;;
36839;SDS011;24406;51.640;9.566;2023-08-30T12:37:18;8.93;;;5.50;;
36839;SDS011;24406;51.640;9.566;2023-08-30T12:42:19;5.78;;;4.25;;
36839;SDS011;24406;51.640;9.566;2023-08-30T12:47:22;5.78;;;4.75;;
36839;SDS011;24406;51.640;9.566;2023-08-30T12:52:24;6.15;;;4.00;;
36839;SDS011;24406;51.640;9.566;2023-08-30T12:57:25;5.47;;;4.65;;
36839;SDS011;24406;51.640;9.566;2023-08-30T13:02:28;6.13;;;4.15;;
36839;SDS011;24406;51.640;9.566;2023-08-30T13:07:30;4.32;;;3.83;;
36839;SDS011;24406;51.640;9.566;2023-08-30T13:12:31;4.20;;;3.70;;
36839;SDS011;24406;51.640;9.566;2023-08-30T13:17:34;3.90;;;3.53;;
36839;SDS011;24406;51.640;9.566;2023-08-30T13:22:36;4.95;;;3.85;;
36839;SDS011;24406;51.640;9.566;2023-08-30T13:27:38;6.18;;;4.22;;
36839;SDS011;24406;51.640;9.566;2023-08-30T13:32:41;8.43;;;5.07;;
36839;SDS011;24406;51.640;9.566;2023-08-30T13:37:42;4.28;;;3.97;;
36839;SDS011;24406;51.640;9.566;2023-08-30T13:42:44;4.05;;;3.60;;
36839;SDS011;24406;51.640;9.566;2023-08-30T13:47:47;7.45;;;4.82;;
36839;SDS011;24406;51.640;9.566;2023-08-30T13:52:51;6.05;;;4.82;;
36839;SDS011;24406;51.640;9.566;2023-08-30T13:57:53;5.63;;;5.05;;
36839;SDS011;24406;51.640;9.566;2023-08-30T14:02:56;4.53;;;4.13;;
36839;SDS011;24406;51.640;9.566;2023-08-30T14:07:58;5.43;;;4.15;;
36839;SDS011;24406;51.640;9.566;2023-08-30T14:12:59;5.05;;;3.72;;
36839;SDS011;24406;51.640;9.566;2023-08-30T14:18:02;4.15;;;3.63;;
36839;SDS011;24406;51.640;9.566;2023-08-30T14:23:04;6.82;;;3.80;;
36839;SDS011;24406;51.640;9.566;2023-08-30T14:28:05;6.00;;;4.45;;
36839;SDS011;24406;51.640;9.566;2023-08-30T14:33:08;5.63;;;4.55;;
36839;SDS011;24406;51.640;9.566;2023-08-30T14:38:10;4.97;;;4.13;;
36839;SDS011;24406;51.640;9.566;2023-08-30T14:43:12;4.93;;;4.07;;
36839;SDS011;24406;51.640;9.566;2023-08-30T14:48:15;4.20;;;3.80;;
36839;SDS011;24406;51.640;9.566;2023-08-30T14:53:17;4.45;;;3.80;;
36839;SDS011;24406;51.640;9.566;2023-08-30T14:58:18;4.45;;;4.03;;
36839;SDS011;24406;51.640;9.566;2023-08-30T15:03:21;5.93;;;4.32;;
36839;SDS011;24406;51.640;9.566;2023-08-30T15:08:23;4.95;;;4.47;;
36839;SDS011;24406;51.640;9.566;2023-08-30T15:13:25;4.78;;;4.38;;
36839;SDS011;24406;51.640;9.566;2023-08-30T15:18:28;5.00;;;4.57;;
36839;SDS011;24406;51.640;9.566;2023-08-30T15:23:30;4.80;;;4.40;;
36839;SDS011;24406;51.640;9.566;2023-08-30T15:28:31;5.03;;;4.63;;
36839;SDS011;24406;51.640;9.566;2023-08-30T15:33:35;4.60;;;4.18;;
36839;SDS011;24406;51.640;9.566;2023-08-30T15:38:36;5.82;;;4.40;;
36839;SDS011;24406;51.640;9.566;2023-08-30T15:43:38;5.78;;;5.28;;
36839;SDS011;24406;51.640;9.566;2023-08-30T15:48:41;6.22;;;5.60;;
36839;SDS011;24406;51.640;9.566;2023-08-30T15:53:43;6.70;;;6.10;;
36839;SDS011;24406;51.640;9.566;2023-08-30T16:03:48;10.38;;;7.53;;
36839;SDS011;24406;51.640;9.566;2023-08-30T16:08:49;7.85;;;7.07;;
36839;SDS011;24406;51.640;9.566;2023-08-30T16:13:51;8.20;;;6.28;;
36839;SDS011;24406;51.640;9.566;2023-08-30T16:18:54;6.80;;;6.20;;
36839;SDS011;24406;51.640;9.566;2023-08-30T16:23:56;8.10;;;6.63;;
36839;SDS011;24406;51.640;9.566;2023-08-30T16:29:00;6.88;;;6.22;;
36839;SDS011;24406;51.640;9.566;2023-08-30T16:34:03;8.38;;;7.40;;
36839;SDS011;24406;51.640;9.566;2023-08-30T16:39:05;6.60;;;6.00;;
36839;SDS011;24406;51.640;9.566;2023-08-30T16:44:07;7.70;;;7.00;;
36839;SDS011;24406;51.640;9.566;2023-08-30T16:49:10;8.57;;;6.18;;
36839;SDS011;24406;51.640;9.566;2023-08-30T16:54:12;7.45;;;6.35;;
36839;SDS011;24406;51.640;9.566;2023-08-30T16:59:29;10.05;;;7.88;;
36839;SDS011;24406;51.640;9.566;2023-08-30T17:04:31;10.02;;;8.18;;
36839;SDS011;24406;51.640;9.566;2023-08-30T17:09:33;10.50;;;8.20;;
36839;SDS011;24406;51.640;9.566;2023-08-30T17:14:35;8.75;;;7.57;;
36839;SDS011;24406;51.640;9.566;2023-08-30T17:19:38;3.63;;;3.30;;
36839;SDS011;24406;51.640;9.566;2023-08-30T17:24:40;4.75;;;4.00;;
36839;SDS011;24406;51.640;9.566;2023-08-30T17:29:41;5.15;;;3.45;;
36839;SDS011;24406;51.640;9.566;2023-08-30T17:34:46;6.82;;;4.15;;
36839;SDS011;24406;51.640;9.566;2023-08-30T17:39:48;4.28;;;3.92;;
36839;SDS011;24406;51.640;9.566;2023-08-30T17:44:50;5.13;;;3.83;;
36839;SDS011;24406;51.640;9.566;2023-08-30T17:49:53;4.18;;;3.88;;
36839;SDS011;24406;51.640;9.566;2023-08-30T17:54:54;5.38;;;4.32;;
36839;SDS011;24406;51.640;9.566;2023-08-30T17:59:56;4.55;;;4.13;;
36839;SDS011;24406;51.640;9.566;2023-08-30T18:05:00;5.63;;;4.55;;
36839;SDS011;24406;51.640;9.566;2023-08-30T18:10:10;5.25;;;4.72;;
36839;SDS011;24406;51.640;9.566;2023-08-30T18:15:13;6.65;;;5.22;;
36839;SDS011;24406;51.640;9.566;2023-08-30T18:20:16;5.93;;;4.47;;
36839;SDS011;24406;51.640;9.566;2023-08-30T18:25:26;5.78;;;4.53;;
36839;SDS011;24406;51.640;9.566;2023-08-30T18:30:41;5.93;;;4.15;;
36839;SDS011;24406;51.640;9.566;2023-08-30T18:35:47;6.40;;;4.40;;
36839;SDS011;24406;51.640;9.566;2023-08-30T18:40:49;6.55;;;3.97;;
36839;SDS011;24406;51.640;9.566;2023-08-30T18:45:54;5.00;;;4.53;;
36839;SDS011;24406;51.640;9.566;2023-08-30T18:51:36;4.82;;;4.43;;
36839;SDS011;24406;51.640;9.566;2023-08-30T18:56:38;4.53;;;4.07;;
36839;SDS011;24406;51.640;9.566;2023-08-30T19:01:49;4.70;;;4.30;;
36839;SDS011;24406;51.640;9.566;2023-08-30T19:07:07;5.72;;;5.22;;
36839;SDS011;24406;51.640;9.566;2023-08-30T19:12:30;8.13;;;5.53;;
36839;SDS011;24406;51.640;9.566;2023-08-30T19:17:35;5.55;;;5.00;;
36839;SDS011;24406;51.640;9.566;2023-08-30T19:22:56;5.50;;;4.93;;
36839;SDS011;24406;51.640;9.566;2023-08-30T19:27:58;5.80;;;5.28;;
36839;SDS011;24406;51.640;9.566;2023-08-30T19:33:23;8.20;;;5.90;;
36839;SDS011;24406;51.640;9.566;2023-08-30T19:38:30;7.18;;;5.53;;
36839;SDS011;24406;51.640;9.566;2023-08-30T19:43:40;5.70;;;5.10;;
36839;SDS011;24406;51.640;9.566;2023-08-30T19:48:45;5.72;;;4.90;;
36839;SDS011;24406;51.640;9.566;2023-08-30T19:53:57;5.93;;;5.40;;
36839;SDS011;24406;51.640;9.566;2023-08-30T19:59:00;5.93;;;5.35;;
36839;SDS011;24406;51.640;9.566;2023-08-30T20:04:02;5.05;;;4.65;;
36839;SDS011;24406;51.640;9.566;2023-08-30T20:09:06;7.35;;;5.57;;
36839;SDS011;24406;51.640;9.566;2023-08-30T20:14:08;5.57;;;5.07;;
36839;SDS011;24406;51.640;9.566;2023-08-30T20:19:09;5.70;;;5.18;;
36839;SDS011;24406;51.640;9.566;2023-08-30T20:30:18;5.18;;;4.68;;
36839;SDS011;24406;51.640;9.566;2023-08-30T20:40:29;7.22;;;6.20;;
36839;SDS011;24406;51.640;9.566;2023-08-30T20:45:45;6.80;;;5.07;;
36839;SDS011;24406;51.640;9.566;2023-08-30T20:51:04;5.50;;;5.00;;
36839;SDS011;24406;51.640;9.566;2023-08-30T20:56:16;6.65;;;4.80;;
36839;SDS011;24406;51.640;9.566;2023-08-30T21:01:18;5.25;;;4.65;;
36839;SDS011;24406;51.640;9.566;2023-08-30T21:06:21;4.78;;;4.28;;
36839;SDS011;24406;51.640;9.566;2023-08-30T21:11:24;5.45;;;4.95;;
36839;SDS011;24406;51.640;9.566;2023-08-30T21:16:26;5.70;;;4.97;;
36839;SDS011;24406;51.640;9.566;2023-08-30T21:21:27;5.72;;;5.07;;
36839;SDS011;24406;51.640;9.566;2023-08-30T21:26:30;5.47;;;4.97;;
36839;SDS011;24406;51.640;9.566;2023-08-30T21:31:32;9.15;;;4.90;;
36839;SDS011;24406;51.640;9.566;2023-08-30T21:36:34;5.82;;;5.20;;
36839;SDS011;24406;51.640;9.566;2023-08-30T21:41:37;5.80;;;5.20;;
36839;SDS011;24406;51.640;9.566;2023-08-30T21:46:38;5.40;;;4.90;;
36839;SDS011;24406;51.640;9.566;2023-08-30T21:51:40;5.22;;;4.82;;
36839;SDS011;24406;51.640;9.566;2023-08-30T21:56:43;4.68;;;4.28;;
36839;SDS011;24406;51.640;9.566;2023-08-30T22:01:44;4.63;;;4.22;;
36839;SDS011;24406;51.640;9.566;2023-08-30T22:06:46;4.90;;;4.43;;
36839;SDS011;24406;51.640;9.566;2023-08-30T22:11:49;4.78;;;4.40;;
36839;SDS011;24406;51.640;9.566;2023-08-30T22:16:50;8.30;;;5.13;;
36839;SDS011;24406;51.640;9.566;2023-08-30T22:21:52;5.55;;;5.05;;
36839;SDS011;24406;51.640;9.566;2023-08-30T22:26:58;5.72;;;5.18;;
36839;SDS011;24406;51.640;9.566;2023-08-30T22:31:59;6.93;;;5.80;;
36839;SDS011;24406;51.640;9.566;2023-08-30T22:37:01;5.38;;;4.80;;
36839;SDS011;24406;51.640;9.566;2023-08-30T22:42:04;7.70;;;5.45;;
36839;SDS011;24406;51.640;9.566;2023-08-30T22:47:06;6.43;;;5.78;;
36839;SDS011;24406;51.640;9.566;2023-08-30T22:52:07;7.43;;;5.15;;
36839;SDS011;24406;51.640;9.566;2023-08-30T22:57:11;5.50;;;5.00;;
36839;SDS011;24406;51.640;9.566;2023-08-30T23:02:13;6.22;;;5.70;;
36839;SDS011;24406;51.640;9.566;2023-08-30T23:07:14;10.00;;;6.05;;
36839;SDS011;24406;51.640;9.566;2023-08-30T23:12:17;7.72;;;5.93;;
36839;SDS011;24406;51.640;9.566;2023-08-30T23:17:19;6.53;;;5.93;;
36839;SDS011;24406;51.640;9.566;2023-08-30T23:22:20;7.43;;;6.68;;
36839;SDS011;24406;51.640;9.566;2023-08-30T23:27:23;6.47;;;5.88;;
36839;SDS011;24406;51.640;9.566;2023-08-30T23:32:25;8.10;;;7.30;;
36839;SDS011;24406;51.640;9.566;2023-08-30T23:37:28;9.05;;;7.45;;
36839;SDS011;24406;51.640;9.566;2023-08-30T23:42:31;9.95;;;7.57;;
36839;SDS011;24406;51.640;9.566;2023-08-30T23:47:32;9.05;;;8.18;;
36839;SDS011;24406;51.640;9.566;2023-08-30T23:52:34;11.25;;;8.40;;
36839;SDS011;24406;51.640;9.566;2023-08-30T23:57:37;9.57;;;8.60;;
